Time;durP1;ratioP1;P1;durP2;ratioP2;P2;SDS_P1;SDS_P2;PMS_P1;PMS_P2;Temp;Humidity;BMP_temperature;BMP_pressure;BME280_temperature;BME280_humidity;BME280_pressure;Samples;Min_cycle;Max_cycle;Signal;HPM_P1;HPM_P2
2022/05/15 00:01:49;;;;;;;10.15;2.85;;;;;;;9.78;79.51;101533.97;5978969;28;20275;-67
2022/05/15 00:04:45;;;;;;;9.90;3.13;;;;;;;10.02;80.69;101528.50;5973731;28;20368;-67
2022/05/15 00:07:40;;;;;;;7.93;2.50;;;;;;;9.48;80.38;101531.88;5980505;28;20479;-66
2022/05/15 00:10:37;;;;;;;8.27;2.70;;;;;;;10.08;80.65;101533.34;5980702;28;20428;-68
2022/05/15 00:13:32;;;;;;;8.93;2.90;;;;;;;10.04;77.90;101531.88;5971924;28;20046;-67
2022/05/15 00:16:31;;;;;;;9.23;2.67;;;;;;;9.73;79.29;101537.94;5973751;28;20040;-68
2022/05/15 00:19:27;;;;;;;9.27;2.53;;;;;;;9.23;80.73;101523.31;5977606;28;20039;-67
2022/05/15 00:22:22;;;;;;;13.98;3.15;;;;;;;9.09;82.09;101537.59;5971537;28;20023;-67
2022/05/15 00:25:17;;;;;;;9.03;2.77;;;;;;;8.87;83.40;101537.50;5981539;28;20070;-66
2022/05/15 00:28:16;;;;;;;9.43;2.57;;;;;;;8.88;82.86;101536.56;5962937;28;20779;-67
2022/05/15 00:31:11;;;;;;;10.68;2.78;;;;;;;9.65;82.38;101529.75;5977182;28;20284;-66
2022/05/15 00:34:07;;;;;;;12.80;3.85;;;;;;;9.87;80.33;101537.66;5979187;28;20111;-67
2022/05/15 00:37:02;;;;;;;8.07;3.10;;;;;;;9.36;80.60;101530.19;5976249;28;20067;-67
2022/05/15 00:39:58;;;;;;;9.17;2.80;;;;;;;9.43;80.79;101523.44;5981292;28;20387;-67
2022/05/15 00:42:53;;;;;;;14.23;3.40;;;;;;;9.22;80.54;101530.41;5978169;28;20271;-68
2022/05/15 00:45:48;;;;;;;8.30;2.60;;;;;;;9.45;81.12;101539.22;5981311;28;20031;-67
2022/05/15 00:48:44;;;;;;;11.55;3.47;;;;;;;9.79;81.35;101537.41;5980213;28;20492;-66
2022/05/15 00:51:45;;;;;;;8.75;2.60;;;;;;;9.96;79.56;101534.28;5978576;28;20395;-67
2022/05/15 00:54:45;;;;;;;10.50;3.10;;;;;;;9.23;80.51;101518.88;5974933;28;20062;-66
2022/05/15 00:57:43;;;;;;;8.68;2.67;;;;;;;9.41;81.08;101520.06;5979901;28;20475;-67
2022/05/15 01:00:40;;;;;;;8.02;2.25;;;;;;;9.78;80.44;101535.75;5979063;28;20063;-67
2022/05/15 01:03:37;;;;;;;7.75;2.83;;;;;;;9.25;79.71;101537.25;5979515;28;20106;-68
2022/05/15 01:06:35;;;;;;;8.18;2.67;;;;;;;9.23;81.01;101524.16;5976426;28;20473;-66
2022/05/15 01:09:30;;;;;;;14.02;2.90;;;;;;;9.61;81.35;101533.56;5974099;28;20039;-67
2022/05/15 01:12:26;;;;;;;9.80;2.58;;;;;;;9.32;80.06;101530.56;5979096;28;20058;-67
2022/05/15 01:15:24;;;;;;;6.75;2.35;;;;;;;8.91;81.40;101531.06;5979083;29;20422;-66
2022/05/15 01:18:21;;;;;;;9.98;3.45;;;;;;;9.24;81.70;101530.28;5972099;29;20032;-66
2022/05/15 01:21:22;;;;;;;6.40;2.63;;;;;;;9.44;81.42;101532.22;5978907;28;20114;-66
2022/05/15 01:24:17;;;;;;;10.52;2.53;;;;;;;9.26;80.13;101531.88;5963689;28;20047;-67
2022/05/15 01:27:13;;;;;;;8.53;2.70;;;;;;;8.70;81.70;101530.84;5973266;28;20079;-67
2022/05/15 01:30:08;;;;;;;7.85;3.03;;;;;;;8.68;82.23;101531.91;5971756;29;20310;-68
2022/05/15 01:33:04;;;;;;;9.32;4.28;;;;;;;8.64;82.68;101519.88;5979451;28;20086;-68
2022/05/15 01:35:59;;;;;;;7.82;2.58;;;;;;;9.36;82.97;101530.19;5991284;28;20035;-66
2022/05/15 01:38:55;;;;;;;8.20;2.90;;;;;;;9.70;80.74;101527.56;5975973;28;20035;-67
2022/05/15 01:41:50;;;;;;;9.90;2.97;;;;;;;9.72;80.37;101539.72;5974093;28;20101;-66
2022/05/15 01:44:45;;;;;;;9.00;2.83;;;;;;;8.97;80.19;101535.84;5971463;28;20349;-67
2022/05/15 01:47:41;;;;;;;8.50;2.47;;;;;;;8.72;80.94;101528.09;5977485;28;20035;-68
2022/05/15 01:50:36;;;;;;;9.95;3.25;;;;;;;8.79;81.04;101534.59;5985049;28;20494;-66
2022/05/15 01:53:31;;;;;;;9.80;2.97;;;;;;;8.71;81.62;101527.25;5974802;28;20031;-67
2022/05/15 01:56:27;;;;;;;11.77;2.83;;;;;;;9.13;81.97;101532.91;5975717;28;20285;-68
2022/05/15 01:59:22;;;;;;;7.38;2.85;;;;;;;8.83;80.49;101533.41;5979196;28;20118;-67
2022/05/15 02:02:18;;;;;;;9.13;3.10;;;;;;;8.34;81.61;101538.84;5977474;28;20063;-67
2022/05/15 02:05:13;;;;;;;10.67;3.00;;;;;;;8.49;82.55;101536.84;5991359;28;20030;-68
2022/05/15 02:08:09;;;;;;;8.25;2.38;;;;;;;8.59;81.28;101545.81;5970093;28;20038;-66
2022/05/15 02:11:05;;;;;;;9.77;2.63;;;;;;;8.98;81.22;101543.69;5978393;28;20633;-66
2022/05/15 02:14:01;;;;;;;7.18;2.67;;;;;;;8.95;81.35;101535.97;5975460;28;20027;-67
2022/05/15 02:16:56;;;;;;;7.80;2.55;;;;;;;9.14;80.37;101535.44;5979809;28;20510;-68
2022/05/15 02:19:51;;;;;;;10.30;2.73;;;;;;;9.18;80.68;101536.03;5979769;28;20090;-67
2022/05/15 02:22:46;;;;;;;8.17;2.73;;;;;;;9.37;80.00;101529.22;5972824;28;20042;-68
2022/05/15 02:25:42;;;;;;;10.23;2.63;;;;;;;9.50;79.05;101537.91;5979696;28;20419;-67
2022/05/15 02:28:38;;;;;;;8.00;2.70;;;;;;;8.97;79.66;101538.50;5977642;28;20058;-66
2022/05/15 02:31:33;;;;;;;6.63;2.60;;;;;;;8.35;80.80;101535.22;5968028;28;20279;-67
2022/05/15 02:34:28;;;;;;;7.90;2.83;;;;;;;8.30;82.62;101540.00;5979375;28;20031;-66
2022/05/15 02:37:24;;;;;;;6.57;3.03;;;;;;;8.09;82.94;101539.72;5968556;28;20111;-67
2022/05/15 02:40:22;;;;;;;7.70;3.43;;;;;;;7.86;83.34;101543.16;5991693;28;20578;-67
2022/05/15 02:43:17;;;;;;;12.27;3.97;;;;;;;7.97;84.90;101543.22;5977876;28;20483;-68
2022/05/15 02:46:12;;;;;;;12.20;4.10;;;;;;;8.18;84.29;101540.88;5978164;28;20051;-66
2022/05/15 02:52:21;;;;;;;9.40;3.40;;;;;;;7.62;84.88;101534.31;5970910;29;20452;-68
2022/05/15 02:55:17;;;;;;;8.37;3.80;;;;;;;7.94;85.79;101546.09;5980511;28;20031;-65
2022/05/15 02:58:12;;;;;;;9.47;4.80;;;;;;;7.82;84.20;101541.69;5972297;29;20086;-67
2022/05/15 03:01:07;;;;;;;9.13;3.57;;;;;;;7.50;84.61;101541.28;5975000;28;20487;-68
2022/05/15 03:04:03;;;;;;;10.67;3.77;;;;;;;7.30;85.81;101554.16;5969100;28;20038;-67
2022/05/15 03:06:58;;;;;;;10.15;4.07;;;;;;;7.31;86.67;101561.94;5975231;28;20039;-66
2022/05/15 03:09:54;;;;;;;10.17;3.67;;;;;;;8.20;86.83;101550.38;5979159;28;20063;-66
2022/05/15 03:12:49;;;;;;;17.90;4.17;;;;;;;8.17;85.30;101542.66;5977509;28;20039;-66
2022/05/15 03:15:44;;;;;;;10.43;4.10;;;;;;;8.24;83.38;101535.97;5977760;28;20042;-67
2022/05/15 03:18:45;;;;;;;8.83;3.50;;;;;;;8.07;83.20;101546.06;5977746;28;20039;-67
2022/05/15 03:21:41;;;;;;;7.80;3.10;;;;;;;7.64;82.77;101543.81;5970193;28;20035;-67
2022/05/15 03:24:36;;;;;;;9.03;3.03;;;;;;;7.36;85.47;101548.47;5982005;28;20991;-67
2022/05/15 03:27:32;;;;;;;8.95;3.47;;;;;;;8.03;85.76;101550.72;5978391;28;20039;-68
2022/05/15 03:30:27;;;;;;;8.50;3.40;;;;;;;7.51;84.87;101550.88;5973101;28;20494;-67
2022/05/15 03:33:22;;;;;;;7.35;3.10;;;;;;;7.54;86.45;101544.56;5970529;28;20334;-68
2022/05/15 03:36:18;;;;;;;6.63;2.63;;;;;;;7.79;85.33;101541.91;5978197;28;20023;-67
2022/05/15 03:39:15;;;;;;;9.40;2.90;;;;;;;7.81;85.33;101540.00;5967785;28;20035;-68
2022/05/15 03:42:10;;;;;;;7.53;3.58;;;;;;;7.97;83.57;101540.59;5976121;28;20438;-68
2022/05/15 03:45:05;;;;;;;8.03;3.40;;;;;;;7.49;84.78;101544.03;5982603;28;20042;-68
2022/05/15 03:48:03;;;;;;;6.85;3.00;;;;;;;7.30;85.84;101548.88;5969298;28;20042;-68
2022/05/15 03:50:59;;;;;;;9.65;3.70;;;;;;;7.61;85.90;101551.94;5983769;28;20035;-68
2022/05/15 03:53:54;;;;;;;8.38;3.33;;;;;;;8.15;85.95;101549.00;5984331;28;20035;-66
2022/05/15 03:56:50;;;;;;;8.40;3.40;;;;;;;7.79;85.19;101560.38;5982148;28;20049;-67
2022/05/15 03:59:45;;;;;;;8.00;2.90;;;;;;;7.46;85.26;101565.34;5982211;28;20031;-66
2022/05/15 04:02:41;;;;;;;11.23;3.63;;;;;;;7.41;86.68;101562.19;5980373;28;20107;-66
2022/05/15 04:05:36;;;;;;;9.00;2.77;;;;;;;7.24;86.06;101565.13;5977831;28;20059;-66
2022/05/15 04:08:31;;;;;;;9.47;3.40;;;;;;;7.22;86.80;101569.66;5981774;29;20042;-66
2022/05/15 04:11:26;;;;;;;9.67;3.47;;;;;;;7.37;87.05;101574.72;5978929;28;20039;-66
2022/05/15 04:14:22;;;;;;;10.87;3.37;;;;;;;7.35;87.53;101573.16;5980649;28;20170;-66
2022/05/15 04:17:17;;;;;;;6.97;3.47;;;;;;;7.52;87.84;101581.63;5973928;29;20035;-68
2022/05/15 04:20:15;;;;;;;8.97;3.17;;;;;;;8.30;86.16;101575.19;5973939;28;20122;-68
2022/05/15 04:23:11;;;;;;;5.97;3.35;;;;;;;9.21;83.66;101568.44;5970994;28;20040;-67
2022/05/15 04:26:06;;;;;;;10.40;2.93;;;;;;;8.99;81.92;101573.63;5979320;29;20066;-66
2022/05/15 04:29:02;;;;;;;7.28;3.17;;;;;;;9.08;81.37;101583.50;5984061;28;20040;-66
2022/05/15 04:31:58;;;;;;;5.30;2.60;;;;;;;9.45;80.72;101576.28;5973154;28;20097;-68
2022/05/15 04:34:53;;;;;;;8.17;3.00;;;;;;;9.80;79.14;101584.16;5979685;28;20464;-68
2022/05/15 04:37:50;;;;;;;6.60;2.90;;;;;;;10.04;78.56;101579.56;5979149;28;20039;-67
2022/05/15 04:40:45;;;;;;;8.55;2.60;;;;;;;10.18;76.99;101586.47;5980925;28;20042;-67
2022/05/15 04:43:40;;;;;;;8.07;2.30;;;;;;;10.40;76.59;101576.69;5973084;28;20039;-66
2022/05/15 04:46:36;;;;;;;7.27;2.67;;;;;;;11.09;76.76;101580.66;5980117;28;20027;-68
2022/05/15 04:49:31;;;;;;;11.83;3.70;;;;;;;11.70;71.38;101586.97;5981172;28;20309;-66
2022/05/15 04:52:26;;;;;;;9.47;3.00;;;;;;;12.22;69.10;101593.06;5978197;28;20446;-68
2022/05/15 04:55:22;;;;;;;11.33;2.77;;;;;;;12.34;68.33;101592.81;5981243;28;20537;-68
2022/05/15 04:58:17;;;;;;;8.03;3.07;;;;;;;12.50;68.67;101594.97;5979062;28;20089;-66
2022/05/15 05:01:13;;;;;;;9.70;3.87;;;;;;;12.15;68.48;101589.28;5980162;28;20028;-66
2022/05/15 05:04:08;;;;;;;12.23;3.65;;;;;;;11.94;70.28;101600.78;5980865;28;20043;-68
2022/05/15 05:07:03;;;;;;;9.85;3.42;;;;;;;12.10;70.29;101596.78;5979673;28;20039;-67
2022/05/15 05:09:59;;;;;;;11.70;4.30;;;;;;;11.81;71.34;101602.81;5980633;28;20471;-67
2022/05/15 05:12:54;;;;;;;9.40;4.10;;;;;;;11.90;72.10;101594.03;5972389;28;20090;-68
2022/05/15 05:15:49;;;;;;;10.70;4.20;;;;;;;12.05;72.79;101591.88;5981676;28;20716;-66
2022/05/15 05:18:45;;;;;;;8.38;3.67;;;;;;;12.49;71.48;101601.25;5979420;28;20035;-67
2022/05/15 05:21:40;;;;;;;14.00;4.40;;;;;;;12.96;69.00;101600.47;5978733;28;20039;-67
2022/05/15 05:24:36;;;;;;;11.93;4.70;;;;;;;11.74;72.71;101601.66;5979461;28;20035;-67
2022/05/15 05:27:31;;;;;;;12.27;4.83;;;;;;;11.95;73.02;101604.28;5977438;28;20042;-66
2022/05/15 05:30:26;;;;;;;8.83;4.37;;;;;;;12.40;72.13;101607.38;5979158;28;20039;-68
2022/05/15 05:33:22;;;;;;;11.53;3.77;;;;;;;12.45;71.10;101599.84;5980983;28;20277;-66
2022/05/15 05:36:18;;;;;;;12.13;4.38;;;;;;;12.51;72.37;101604.63;5973800;28;20279;-67
2022/05/15 05:39:13;;;;;;;8.60;3.80;;;;;;;13.42;68.94;101601.63;5979479;28;20042;-67
2022/05/15 05:42:08;;;;;;;10.67;3.70;;;;;;;13.84;67.27;101602.91;5978564;28;20035;-66
2022/05/15 05:45:05;;;;;;;14.85;4.65;;;;;;;13.31;67.97;101596.44;5979489;28;20082;-67
2022/05/15 05:48:00;;;;;;;12.60;4.50;;;;;;;13.53;66.84;101602.28;5970824;28;20071;-68
2022/05/15 05:50:56;;;;;;;13.53;3.87;;;;;;;13.95;64.39;101592.06;5978774;28;20083;-66
2022/05/15 05:53:51;;;;;;;12.30;3.50;;;;;;;13.98;64.61;101605.13;5980146;28;20278;-66
2022/05/15 05:56:47;;;;;;;11.87;4.00;;;;;;;14.03;63.65;101591.31;5979992;28;20039;-66
2022/05/15 05:59:42;;;;;;;8.13;3.07;;;;;;;15.26;60.86;101596.88;5979935;28;20289;-66
2022/05/15 06:02:38;;;;;;;10.65;3.45;;;;;;;16.05;59.67;101586.06;5985734;28;20042;-67
2022/05/15 06:05:33;;;;;;;10.17;3.93;;;;;;;16.21;58.49;101593.31;5977933;28;20491;-66
2022/05/15 06:08:29;;;;;;;11.63;3.47;;;;;;;16.00;58.56;101583.88;5974997;29;20479;-66
2022/05/15 06:11:25;;;;;;;16.05;3.70;;;;;;;15.21;60.26;101596.50;5971952;28;20035;-67
2022/05/15 06:14:20;;;;;;;10.83;3.53;;;;;;;15.61;60.57;101593.31;5975520;28;20093;-65
2022/05/15 06:17:20;;;;;;;7.87;2.90;;;;;;;15.06;59.72;101597.19;5978765;28;20054;-66
2022/05/15 06:20:16;;;;;;;10.95;3.42;;;;;;;15.26;59.12;101598.69;5978060;28;20046;-67
2022/05/15 06:23:11;;;;;;;7.32;2.65;;;;;;;15.35;58.42;101600.47;5977224;28;20444;-65
2022/05/15 06:26:06;;;;;;;8.83;3.00;;;;;;;15.68;57.50;101598.88;5978734;28;20046;-68
2022/05/15 06:29:01;;;;;;;10.70;3.03;;;;;;;16.01;56.47;101590.03;5986405;28;20027;-68
2022/05/15 06:31:59;;;;;;;8.17;2.80;;;;;;;15.54;59.15;101600.31;5980233;28;20110;-66
2022/05/15 06:34:54;;;;;;;8.48;2.80;;;;;;;15.62;58.25;101594.16;5977388;28;20399;-67
2022/05/15 06:37:49;;;;;;;14.60;3.00;;;;;;;16.11;57.48;101598.81;5978500;28;20019;-67
2022/05/15 06:40:45;;;;;;;9.30;2.50;;;;;;;17.06;55.00;101603.78;5976397;28;20038;-66
2022/05/15 06:43:40;;;;;;;8.90;2.77;;;;;;;16.43;55.48;101598.94;5982213;28;20033;-66
2022/05/15 06:46:35;;;;;;;10.65;2.70;;;;;;;15.97;57.25;101594.03;5986828;28;20031;-66
2022/05/15 06:49:31;;;;;;;8.00;2.10;;;;;;;16.84;54.54;101589.19;5978081;28;20085;-67
2022/05/15 06:52:27;;;;;;;12.73;2.75;;;;;;;16.84;54.49;101599.06;5982058;28;20089;-67
2022/05/15 06:55:22;;;;;;;8.95;2.35;;;;;;;16.66;54.56;101605.38;5978192;28;20050;-67
2022/05/15 06:58:18;;;;;;;11.38;2.50;;;;;;;16.95;53.92;101596.91;5986428;28;20562;-66
2022/05/15 07:01:13;;;;;;;9.23;2.10;;;;;;;16.87;53.33;101591.53;5981262;28;20048;-68
2022/05/15 07:04:08;;;;;;;8.57;2.23;;;;;;;16.67;53.98;101598.19;5977586;28;20414;-67
2022/05/15 07:07:04;;;;;;;8.57;2.30;;;;;;;16.14;54.92;101585.09;5988040;28;20035;-66
2022/05/15 07:09:59;;;;;;;7.78;2.38;;;;;;;16.23;55.39;101588.63;5976840;28;20123;-66
2022/05/15 07:12:55;;;;;;;7.50;2.27;;;;;;;17.22;52.44;101582.34;5984378;28;20154;-66
2022/05/15 07:15:50;;;;;;;7.78;2.72;;;;;;;16.88;54.55;101592.34;5975810;28;20031;-67
2022/05/15 07:18:45;;;;;;;6.60;2.20;;;;;;;16.99;53.46;101597.41;5969862;28;20040;-66
2022/05/15 07:21:41;;;;;;;9.37;2.10;;;;;;;16.47;53.21;101594.91;5975438;28;20279;-67
2022/05/15 07:24:38;;;;;;;8.20;2.03;;;;;;;16.56;53.61;101590.47;5987498;28;20043;-67
2022/05/15 07:27:33;;;;;;;11.45;2.47;;;;;;;16.26;54.36;101591.81;5991176;28;20045;-65
2022/05/15 07:30:29;;;;;;;8.40;1.60;;;;;;;17.24;51.56;101589.22;5985888;28;20422;-66
2022/05/15 07:33:26;;;;;;;8.77;2.10;;;;;;;17.25;51.04;101582.00;5981968;28;20554;-68
2022/05/15 07:36:21;;;;;;;6.45;1.77;;;;;;;17.88;50.14;101583.97;5985457;28;20035;-67
2022/05/15 07:39:18;;;;;;;6.30;1.90;;;;;;;17.38;51.71;101587.69;5982898;28;20301;-67
2022/05/15 07:42:14;;;;;;;8.38;2.10;;;;;;;17.77;50.27;101599.41;5983714;28;20423;-67
2022/05/15 07:45:10;;;;;;;7.43;2.10;;;;;;;17.31;51.14;101581.34;5981500;28;20118;-66
2022/05/15 07:48:06;;;;;;;8.98;1.83;;;;;;;17.50;51.44;101580.97;5981259;28;20039;-67
2022/05/15 07:51:02;;;;;;;5.50;2.03;;;;;;;18.14;48.65;101590.75;5984280;28;20403;-67
2022/05/15 07:53:57;;;;;;;12.27;2.42;;;;;;;17.83;49.32;101584.47;5985610;28;20044;-66
2022/05/15 07:56:53;;;;;;;8.70;2.17;;;;;;;18.00;48.49;101582.56;5975271;28;20063;-67
2022/05/15 07:59:48;;;;;;;9.90;2.22;;;;;;;18.44;48.55;101587.25;5975974;28;20278;-67
2022/05/15 08:02:44;;;;;;;9.25;2.10;;;;;;;18.96;47.35;101590.16;5982894;28;20487;-67
2022/05/15 08:08:53;;;;;;;8.38;2.47;;;;;;;18.67;47.91;101576.56;5982487;28;20441;-67
2022/05/15 08:11:49;;;;;;;4.83;1.63;;;;;;;18.48;46.42;101586.94;5984445;28;20035;-68
2022/05/15 08:14:44;;;;;;;7.22;2.22;;;;;;;18.83;47.13;101571.09;5981341;28;20046;-66
2022/05/15 08:17:39;;;;;;;6.87;1.70;;;;;;;18.52;47.22;101578.34;5977346;28;20042;-68
2022/05/15 08:24:00;;;;;;;8.57;2.13;;;;;;;19.26;45.79;101572.28;5981758;29;20035;-68
2022/05/15 08:26:56;;;;;;;11.50;2.35;;;;;;;19.19;45.84;101571.31;5981649;28;20070;-67
2022/05/15 08:29:51;;;;;;;12.02;2.30;;;;;;;19.34;45.66;101574.91;5992648;28;20520;-67
2022/05/15 08:32:47;;;;;;;10.30;1.73;;;;;;;19.30;45.80;101581.66;5981756;28;20184;-68
2022/05/15 08:35:42;;;;;;;9.70;2.15;;;;;;;19.22;45.33;101579.03;5972906;28;20283;-67
2022/05/15 08:38:38;;;;;;;9.43;2.30;;;;;;;18.97;44.59;101567.63;5988245;28;20035;-66
2022/05/15 08:41:55;;;;;;;6.63;1.67;;;;;;;19.50;44.43;101571.25;5980314;28;20487;-67
2022/05/15 08:44:53;;;;;;;8.85;2.03;;;;;;;19.44;44.01;101569.28;5978214;29;20059;-66
2022/05/15 08:47:56;;;;;;;9.25;2.10;;;;;;;18.75;45.75;101573.81;5982023;28;20051;-67
2022/05/15 08:50:52;;;;;;;8.45;2.15;;;;;;;19.09;44.03;101576.13;5978897;28;20035;-67
2022/05/15 08:53:49;;;;;;;9.52;2.15;;;;;;;18.89;45.98;101570.38;5986572;28;20047;-66
2022/05/15 08:56:46;;;;;;;9.93;2.03;;;;;;;19.64;44.70;101570.44;5977356;28;20058;-67
2022/05/15 08:59:56;;;;;;;7.40;1.75;;;;;;;20.09;43.73;101574.78;5982109;28;20376;-67
2022/05/15 09:02:54;;;;;;;8.07;1.80;;;;;;;20.22;42.47;101568.75;5983220;28;20105;-67
2022/05/15 09:05:55;;;;;;;6.75;2.03;;;;;;;19.72;43.60;101567.66;5979547;28;20035;-66
2022/05/15 09:09:11;;;;;;;4.15;1.65;;;;;;;20.25;42.81;101571.94;5984958;28;20094;-67
2022/05/15 09:12:19;;;;;;;11.88;2.00;;;;;;;20.13;42.98;101571.56;5979535;28;20035;-67
2022/05/15 09:15:20;;;;;;;9.02;2.22;;;;;;;19.79;43.31;101568.56;5981626;28;20114;-66
2022/05/15 09:18:21;;;;;;;9.68;1.75;;;;;;;20.07;43.65;101569.59;5979414;28;20035;-67
2022/05/15 09:21:17;;;;;;;7.57;2.08;;;;;;;19.96;42.99;101558.47;5985711;28;20497;-67
2022/05/15 09:24:37;;;;;;;8.43;2.65;;;;;;;20.24;42.28;101566.72;5986914;28;20036;-67
2022/05/15 09:27:32;;;;;;;7.88;2.15;;;;;;;20.12;42.94;101559.09;5976155;28;20498;-67
2022/05/15 09:30:45;;;;;;;11.07;2.53;;;;;;;19.92;43.28;101552.59;5984633;28;20043;-66
2022/05/15 09:33:50;;;;;;;8.63;2.00;;;;;;;19.90;43.37;101554.66;5979458;28;20084;-67
2022/05/15 09:36:46;;;;;;;6.65;2.28;;;;;;;20.08;43.63;101557.78;5978489;28;20399;-67
2022/05/15 09:39:52;;;;;;;8.13;2.03;;;;;;;19.87;42.29;101563.09;5980076;28;20050;-68
2022/05/15 09:46:13;;;;;;;8.65;1.90;;;;;;;20.77;40.57;101559.06;5980884;28;19918;-68
2022/05/15 09:49:20;;;;;;;14.15;2.22;;;;;;;21.29;39.74;101547.97;5983868;28;20649;-67
2022/05/15 09:52:22;;;;;;;7.70;2.00;;;;;;;21.55;39.11;101551.91;5979889;28;20054;-67
2022/05/15 09:55:25;;;;;;;6.88;2.03;;;;;;;21.38;38.98;101558.63;5980394;28;20078;-68
2022/05/15 10:02:22;;;;;;;13.30;2.42;;;;;;;20.46;40.39;101549.59;5979169;28;20078;-67
2022/05/15 10:05:26;;;;;;;10.45;1.90;;;;;;;20.73;40.45;101540.78;5990487;28;20063;-67
2022/05/15 10:08:27;;;;;;;9.40;2.00;;;;;;;21.35;40.07;101535.56;5988755;28;20500;-67
2022/05/15 10:11:23;;;;;;;10.02;2.08;;;;;;;21.90;39.02;101538.22;5978371;28;20464;-68
2022/05/15 10:14:28;;;;;;;7.43;2.30;;;;;;;21.48;39.43;101542.91;5981598;28;20058;-68
2022/05/15 10:17:24;;;;;;;9.05;2.25;;;;;;;21.26;40.00;101542.13;5980338;28;20106;-68
2022/05/15 10:20:22;;;;;;;7.00;1.92;;;;;;;21.53;41.25;101537.75;5979459;28;20043;-67
2022/05/15 10:23:22;;;;;;;10.18;2.25;;;;;;;21.52;38.93;101536.09;5984033;28;20183;-67
2022/05/15 10:26:33;;;;;;;7.82;2.00;;;;;;;21.19;39.00;101533.97;5978802;28;20034;-67
2022/05/15 10:29:37;;;;;;;6.43;2.00;;;;;;;21.36;39.31;101532.66;5978589;28;20073;-68
2022/05/15 10:32:39;;;;;;;11.57;2.13;;;;;;;21.55;38.33;101523.00;5978036;28;20030;-68
2022/05/15 10:35:59;;;;;;;8.85;1.80;;;;;;;21.78;38.73;101526.28;5979775;28;20035;-67
2022/05/15 10:39:07;;;;;;;7.90;2.38;;;;;;;21.65;38.92;101534.31;5976105;29;20038;-68
2022/05/15 10:42:18;;;;;;;7.97;2.10;;;;;;;21.53;40.12;101522.38;5976967;28;20066;-67
2022/05/15 10:45:52;;;;;;;7.05;1.50;;;;;;;22.33;38.42;101519.91;5980338;28;20037;-67
2022/05/15 10:49:10;;;;;;;9.32;2.30;;;;;;;22.29;37.46;101513.25;5977206;29;20035;-67
2022/05/15 10:52:43;;;;;;;12.13;2.88;;;;;;;22.25;38.75;101517.41;5983619;28;20067;-68
2022/05/15 10:59:04;;;;;;;6.82;1.88;;;;;;;21.91;38.35;101502.06;5973704;28;20032;-67
2022/05/15 11:02:37;;;;;;;8.75;1.60;;;;;;;22.36;37.18;101497.91;5990944;28;20114;-68
2022/05/15 11:05:53;;;;;;;7.35;2.13;;;;;;;22.01;37.81;101498.19;5975392;28;20041;-67
2022/05/15 11:08:54;;;;;;;8.98;2.30;;;;;;;22.24;36.08;101491.41;5986493;28;20410;-67
2022/05/15 11:11:58;;;;;;;12.05;2.13;;;;;;;21.94;37.00;101498.13;5985214;28;20115;-67
2022/05/15 11:15:12;;;;;;;8.02;1.95;;;;;;;22.63;36.65;101500.66;5991923;28;20042;-68
2022/05/15 11:18:31;;;;;;;9.05;2.55;;;;;;;22.29;36.46;101496.19;5984687;28;20167;-68
2022/05/15 11:21:50;;;;;;;7.90;2.72;;;;;;;21.79;37.32;101492.03;5984054;29;20086;-67
2022/05/15 11:24:55;;;;;;;7.90;1.67;;;;;;;22.66;35.36;101479.47;5988007;28;20111;-68
2022/05/15 11:27:55;;;;;;;7.35;1.90;;;;;;;22.31;36.04;101467.91;5985462;28;20038;-67
2022/05/15 11:30:59;;;;;;;9.57;2.03;;;;;;;22.03;36.06;101475.31;5985216;28;20043;-68
2022/05/15 11:33:56;;;;;;;8.48;2.65;;;;;;;22.23;35.24;101476.19;5987213;28;20471;-66
2022/05/15 11:36:52;;;;;;;8.90;2.22;;;;;;;22.01;35.07;101477.41;5985492;28;20159;-67
2022/05/15 11:39:59;;;;;;;5.47;2.13;;;;;;;21.51;36.46;101472.31;5985894;28;20035;-66
2022/05/15 11:42:54;;;;;;;5.75;1.73;;;;;;;21.87;34.65;101464.88;5985162;28;20480;-67
2022/05/15 11:45:51;;;;;;;9.40;2.08;;;;;;;22.06;36.79;101469.53;5985449;28;20094;-67
2022/05/15 11:48:52;;;;;;;9.70;3.70;;;;;;;22.27;36.14;101461.25;5985533;28;20039;-66
2022/05/15 11:52:16;;;;;;;5.63;1.70;;;;;;;22.77;35.43;101457.22;5985332;28;20031;-67
2022/05/15 11:55:36;;;;;;;6.00;1.70;;;;;;;22.97;35.04;101449.09;5994875;28;20122;-68
2022/05/15 11:58:41;;;;;;;8.50;2.20;;;;;;;23.39;34.03;101445.09;5985968;28;20042;-67
2022/05/15 12:01:38;;;;;;;8.15;2.05;;;;;;;23.39;34.09;101450.53;5983093;28;20039;-68
2022/05/15 12:04:33;;;;;;;6.43;1.73;;;;;;;22.89;34.29;101455.53;5982004;28;20050;-67
2022/05/15 12:07:31;;;;;;;6.63;2.00;;;;;;;21.91;36.61;101460.72;5982063;28;20063;-68
2022/05/15 12:10:35;;;;;;;10.00;1.95;;;;;;;21.91;37.33;101437.25;5981508;28;20039;-68
2022/05/15 12:13:33;;;;;;;7.25;2.08;;;;;;;22.78;35.08;101441.81;5986069;28;20573;-68
2022/05/15 12:16:34;;;;;;;9.98;2.00;;;;;;;23.16;35.11;101431.16;5982963;28;20039;-68
2022/05/15 12:19:36;;;;;;;7.47;2.30;;;;;;;22.97;34.75;101432.84;5979907;28;20474;-68
2022/05/15 12:22:37;;;;;;;11.30;2.30;;;;;;;23.55;33.49;101421.09;5980575;28;20023;-67
2022/05/15 12:25:41;;;;;;;8.10;1.92;;;;;;;23.38;34.83;101422.59;5982746;28;20454;-67
2022/05/15 12:29:02;;;;;;;8.73;2.28;;;;;;;23.15;34.41;101424.94;5980156;28;20043;-68
2022/05/15 12:31:58;;;;;;;8.70;2.25;;;;;;;23.41;33.35;101416.78;5980907;28;20109;-67
2022/05/15 12:34:54;;;;;;;6.68;1.83;;;;;;;23.79;32.74;101407.88;5982596;28;20043;-68
2022/05/15 12:38:13;;;;;;;7.68;2.10;;;;;;;24.04;33.82;101414.22;5978045;28;20055;-69
2022/05/15 12:41:14;;;;;;;5.43;2.00;;;;;;;24.32;32.68;101394.91;5980312;28;20045;-69
2022/05/15 12:44:11;;;;;;;6.82;1.77;;;;;;;24.09;32.02;101403.59;5989419;28;20062;-68
2022/05/15 12:47:12;;;;;;;7.00;2.03;;;;;;;23.34;33.46;101401.56;5983958;28;20485;-68
2022/05/15 12:50:13;;;;;;;4.20;1.70;;;;;;;23.33;33.83;101408.84;5979185;29;20434;-68
2022/05/15 12:53:24;;;;;;;6.45;1.95;;;;;;;23.38;33.61;101400.94;5981211;28;20115;-68
2022/05/15 12:56:35;;;;;;;7.50;1.80;;;;;;;23.47;33.12;101391.56;5987917;28;20213;-67
2022/05/15 12:59:35;;;;;;;6.20;1.63;;;;;;;23.73;33.96;101397.94;5980763;28;20074;-69
2022/05/15 13:02:37;;;;;;;8.52;1.77;;;;;;;23.89;33.50;101379.25;5980146;28;20031;-68
2022/05/15 13:05:36;;;;;;;7.65;1.48;;;;;;;23.02;34.63;101387.88;5987567;28;20047;-67
2022/05/15 13:08:50;;;;;;;7.72;2.00;;;;;;;23.06;34.24;101375.59;5980461;28;20390;-68
2022/05/15 13:11:54;;;;;;;8.48;2.05;;;;;;;23.63;33.05;101374.00;5979737;28;20027;-68
2022/05/15 13:14:49;;;;;;;10.70;2.55;;;;;;;23.73;32.83;101373.53;5983890;28;20031;-68
2022/05/15 13:17:45;;;;;;;7.20;1.90;;;;;;;23.72;32.85;101371.88;5979157;28;20050;-67
2022/05/15 13:20:45;;;;;;;9.55;1.98;;;;;;;23.72;32.71;101372.72;5979464;28;20270;-68
2022/05/15 13:23:46;;;;;;;4.30;1.55;;;;;;;24.31;31.65;101364.22;5979036;28;20027;-68
2022/05/15 13:26:48;;;;;;;6.45;1.83;;;;;;;24.32;31.74;101360.47;5978700;29;20050;-67
2022/05/15 13:29:44;;;;;;;6.35;1.70;;;;;;;24.66;31.07;101351.84;5979018;29;20047;-68
2022/05/15 13:32:41;;;;;;;7.23;2.20;;;;;;;24.83;31.38;101336.69;5979353;29;20086;-67
2022/05/15 13:35:38;;;;;;;7.50;1.92;;;;;;;24.66;31.95;101345.56;5990341;28;20761;-68
2022/05/15 13:43:17;;;;;;;6.82;1.80;;;;;;;24.73;32.23;101333.59;5969255;29;20039;-67
2022/05/15 13:45:15;;;;;;;4.55;1.52;;;;;;;24.82;31.38;101339.59;5979705;28;20035;-68
2022/05/15 13:48:11;;;;;;;7.10;1.65;;;;;;;24.05;31.73;101342.72;5978244;28;20078;-67
2022/05/15 13:51:06;;;;;;;4.80;1.80;;;;;;;24.28;30.77;101330.25;5978904;29;20035;-68
2022/05/15 13:54:22;;;;;;;5.47;1.63;;;;;;;24.84;29.89;101324.75;5985248;28;20030;-67
2022/05/15 13:57:18;;;;;;;6.75;1.90;;;;;;;24.97;29.96;101318.38;5979579;28;20059;-68
2022/05/15 14:00:14;;;;;;;5.30;1.40;;;;;;;25.52;29.44;101318.38;5978276;28;20114;-68
2022/05/15 14:03:27;;;;;;;6.65;1.70;;;;;;;24.13;31.17;101320.78;5979529;28;20043;-67
2022/05/15 14:06:32;;;;;;;8.55;2.00;;;;;;;24.25;31.76;101319.00;5974707;28;20035;-68
2022/05/15 14:09:55;;;;;;;5.32;1.48;;;;;;;25.27;30.12;101332.84;5979349;28;20035;-68
2022/05/15 14:12:53;;;;;;;7.43;1.83;;;;;;;26.13;29.79;101329.81;5978614;28;20066;-68
2022/05/15 14:15:51;;;;;;;4.53;1.50;;;;;;;25.67;29.85;101325.03;5978843;28;20173;-68
2022/05/15 14:18:47;;;;;;;6.97;1.70;;;;;;;25.88;29.15;101323.69;5978962;28;20498;-68